Time;durP1;ratioP1;P1;durP2;ratioP2;P2;SDS_P1;SDS_P2;PMS_P1;PMS_P2;Temp;Humidity;BMP_temperature;BMP_pressure;BME280_temperature;BME280_humidity;BME280_pressure;Samples;Min_cycle;Max_cycle;Signal;HPM_P1;HPM_P2
2023/03/11 00:01:30;;;;;;;0.73;0.73;;;3.60;99.90;;;;;;4430271;32;20817;-72
2023/03/11 00:03:55;;;;;;;0.60;0.60;;;3.60;99.90;;;;;;4426629;32;20614;-73
2023/03/11 00:06:21;;;;;;;2.15;0.73;;;3.40;99.90;;;;;;4431254;32;20080;-73
2023/03/11 00:08:46;;;;;;;1.30;1.20;;;3.40;99.90;;;;;;4429630;32;20088;-72
2023/03/11 00:11:12;;;;;;;0.47;0.47;;;3.40;99.90;;;;;;4430289;32;20465;-72
2023/03/11 00:13:38;;;;;;;1.85;1.45;;;3.40;99.90;;;;;;4428753;32;20068;-72
2023/03/11 00:16:04;;;;;;;0.52;0.52;;;3.30;99.90;;;;;;4429025;32;20097;-71
2023/03/11 00:18:30;;;;;;;0.88;0.82;;;3.10;99.90;;;;;;4431434;32;20073;-73
2023/03/11 00:20:57;;;;;;;0.45;0.45;;;3.10;99.90;;;;;;4430040;32;20093;-73
2023/03/11 00:23:24;;;;;;;0.35;0.35;;;3.00;99.90;;;;;;4429788;32;20137;-72
2023/03/11 00:25:50;;;;;;;0.65;0.65;;;3.00;99.90;;;;;;4430206;32;20096;-72
2023/03/11 00:28:15;;;;;;;0.50;0.50;;;2.90;99.90;;;;;;4430900;32;20166;-72
2023/03/11 00:30:43;;;;;;;1.75;0.93;;;3.00;99.90;;;;;;4431839;32;20061;-72
2023/03/11 00:33:11;;;;;;;0.77;0.77;;;3.00;99.90;;;;;;4428591;32;20088;-72
2023/03/11 00:35:37;;;;;;;0.43;0.43;;;2.90;99.90;;;;;;4430840;32;20065;-74
2023/03/11 00:38:05;;;;;;;0.60;0.60;;;3.00;99.90;;;;;;4427973;32;20577;-73
2023/03/11 00:40:32;;;;;;;0.75;0.75;;;2.90;99.90;;;;;;4430711;32;20575;-74
2023/03/11 00:42:58;;;;;;;0.50;0.50;;;2.80;99.90;;;;;;4430039;32;20116;-73
2023/03/11 00:45:24;;;;;;;0.30;0.30;;;2.70;99.90;;;;;;4430894;32;20539;-71
2023/03/11 00:47:51;;;;;;;0.50;0.50;;;2.60;99.90;;;;;;4430403;32;20076;-74
2023/03/11 00:50:20;;;;;;;0.40;0.40;;;2.60;99.90;;;;;;4429745;32;20181;-72
2023/03/11 00:52:47;;;;;;;0.43;0.43;;;2.70;99.90;;;;;;4432998;32;20116;-71
2023/03/11 00:55:15;;;;;;;0.65;0.65;;;2.60;99.90;;;;;;4432367;32;20137;-72
2023/03/11 00:57:42;;;;;;;0.47;0.47;;;2.60;99.90;;;;;;4432914;32;20097;-72
2023/03/11 01:00:10;;;;;;;0.50;0.50;;;2.60;99.90;;;;;;4433606;32;20540;-71
2023/03/11 01:02:37;;;;;;;0.40;0.40;;;2.60;99.90;;;;;;4433730;32;20101;-75
2023/03/11 01:05:02;;;;;;;0.50;0.50;;;2.60;99.90;;;;;;4429982;32;20128;-75
2023/03/11 01:07:28;;;;;;;0.47;0.47;;;2.70;99.90;;;;;;4429872;32;21324;-72
2023/03/11 01:09:53;;;;;;;0.62;0.62;;;2.60;99.90;;;;;;4432439;32;20077;-74
2023/03/11 01:12:19;;;;;;;0.73;0.73;;;2.50;99.90;;;;;;4431377;32;20093;-75
2023/03/11 01:14:44;;;;;;;0.40;0.40;;;2.50;99.90;;;;;;4431541;32;20401;-73
2023/03/11 01:17:10;;;;;;;0.50;0.50;;;2.50;99.90;;;;;;4435314;32;20150;-73
2023/03/11 01:19:35;;;;;;;0.57;0.57;;;2.40;99.90;;;;;;4431743;32;20406;-71
2023/03/11 01:22:01;;;;;;;0.62;0.62;;;2.60;99.90;;;;;;4428136;32;20065;-71
2023/03/11 01:24:26;;;;;;;0.73;0.73;;;2.60;99.90;;;;;;4431904;32;20123;-73
2023/03/11 01:26:52;;;;;;;0.62;0.62;;;2.50;99.90;;;;;;4432870;32;20674;-72
2023/03/11 01:29:17;;;;;;;0.68;0.57;;;2.60;99.90;;;;;;4431348;32;20078;-71
2023/03/11 01:31:43;;;;;;;0.50;0.50;;;2.70;99.90;;;;;;4433438;32;20076;-72
2023/03/11 01:34:08;;;;;;;0.60;0.60;;;2.60;99.90;;;;;;4431046;32;20136;-73
2023/03/11 01:36:34;;;;;;;0.35;0.35;;;2.50;99.90;;;;;;4431323;32;20104;-73
2023/03/11 01:38:59;;;;;;;0.40;0.40;;;2.40;99.90;;;;;;4431624;32;20582;-74
2023/03/11 01:41:25;;;;;;;0.50;0.50;;;2.40;99.90;;;;;;4420365;32;20104;-74
2023/03/11 01:43:53;;;;;;;1.98;1.35;;;2.30;99.90;;;;;;4419573;32;20468;-73
2023/03/11 01:46:24;;;;;;;0.43;0.43;;;2.30;99.90;;;;;;4422097;32;20434;-73
2023/03/11 01:48:54;;;;;;;0.77;0.77;;;2.40;99.90;;;;;;4421312;32;20215;-73
2023/03/11 01:51:27;;;;;;;0.60;0.60;;;2.30;99.90;;;;;;4421133;32;20132;-72
2023/03/11 01:53:54;;;;;;;0.50;0.50;;;2.40;99.90;;;;;;4422284;32;20127;-73
2023/03/11 01:56:20;;;;;;;0.50;0.50;;;2.30;99.90;;;;;;4422781;32;20097;-73
2023/03/11 01:58:48;;;;;;;0.40;0.40;;;2.30;99.90;;;;;;4420052;32;20082;-74
2023/03/11 02:01:15;;;;;;;0.68;0.68;;;2.30;99.90;;;;;;4419098;32;21031;-74
2023/03/11 02:03:41;;;;;;;0.32;0.32;;;2.30;99.90;;;;;;4421579;32;20078;-73
2023/03/11 02:06:11;;;;;;;0.40;0.40;;;2.30;99.90;;;;;;4422315;32;20124;-72
2023/03/11 02:08:39;;;;;;;0.40;0.40;;;2.30;99.90;;;;;;4419989;32;20553;-71
2023/03/11 02:11:08;;;;;;;0.45;0.45;;;2.20;99.90;;;;;;4418598;32;20139;-75
2023/03/11 02:13:35;;;;;;;0.40;0.40;;;2.20;99.90;;;;;;4420566;32;20082;-72
2023/03/11 02:16:02;;;;;;;0.40;0.40;;;2.30;99.90;;;;;;4421218;32;20510;-72
2023/03/11 02:18:27;;;;;;;0.50;0.50;;;2.30;99.90;;;;;;4420741;32;20067;-71
2023/03/11 02:21:08;;;;;;;0.40;0.40;;;2.30;99.90;;;;;;4420614;32;20077;-73
2023/03/11 02:23:46;;;;;;;0.40;0.40;;;2.40;99.90;;;;;;4420466;32;20100;-72
2023/03/11 02:26:19;;;;;;;0.30;0.30;;;2.30;99.90;;;;;;4420145;32;20093;-72
2023/03/11 02:28:46;;;;;;;0.40;0.40;;;2.20;99.90;;;;;;4420117;32;20081;-73
2023/03/11 02:31:13;;;;;;;0.40;0.40;;;2.30;99.90;;;;;;4418327;32;20167;-73
2023/03/11 02:33:39;;;;;;;0.40;0.40;;;2.20;99.90;;;;;;4420725;32;21333;-72
2023/03/11 02:36:05;;;;;;;0.40;0.40;;;2.20;99.90;;;;;;4420921;32;20085;-74
2023/03/11 02:38:31;;;;;;;0.60;0.60;;;2.10;99.90;;;;;;4419445;32;20089;-73
2023/03/11 02:40:59;;;;;;;0.40;0.40;;;2.20;99.90;;;;;;4419192;32;20066;-73
2023/03/11 02:43:33;;;;;;;0.40;0.40;;;2.30;99.90;;;;;;4425876;32;20085;-74
2023/03/11 02:46:00;;;;;;;0.45;0.45;;;2.20;99.90;;;;;;4430472;32;20073;-72
2023/03/11 02:48:28;;;;;;;0.35;0.35;;;2.10;99.90;;;;;;4430519;32;20081;-73
2023/03/11 02:50:53;;;;;;;0.50;0.50;;;2.10;99.90;;;;;;4431980;32;20460;-74
2023/03/11 02:53:19;;;;;;;0.40;0.40;;;2.10;99.90;;;;;;4430771;32;20073;-72
2023/03/11 02:55:45;;;;;;;0.40;0.40;;;2.10;99.90;;;;;;4431637;32;20343;-71
2023/03/11 02:58:10;;;;;;;0.40;0.40;;;2.10;99.90;;;;;;4429370;32;20126;-72
2023/03/11 03:00:36;;;;;;;0.40;0.40;;;2.10;99.90;;;;;;4428305;32;20069;-71
2023/03/11 03:03:01;;;;;;;0.40;0.40;;;2.10;99.90;;;;;;4430998;32;20077;-73
2023/03/11 03:05:27;;;;;;;0.35;0.35;;;2.10;99.90;;;;;;4432008;32;20207;-75
2023/03/11 03:07:52;;;;;;;0.40;0.40;;;2.10;99.90;;;;;;4430459;32;20547;-71
2023/03/11 03:10:20;;;;;;;0.40;0.40;;;2.10;99.90;;;;;;4429200;32;20085;-73
2023/03/11 03:12:45;;;;;;;0.40;0.40;;;2.10;99.90;;;;;;4431511;32;20061;-72
2023/03/11 03:15:11;;;;;;;0.30;0.30;;;2.20;99.90;;;;;;4429956;32;20080;-73
2023/03/11 03:17:36;;;;;;;0.40;0.40;;;2.20;99.90;;;;;;4430817;32;20122;-71
2023/03/11 03:20:05;;;;;;;0.40;0.40;;;2.10;99.90;;;;;;4429962;32;20141;-73
2023/03/11 03:22:30;;;;;;;0.70;0.70;;;2.10;99.90;;;;;;4429216;32;20065;-74
2023/03/11 03:24:56;;;;;;;0.40;0.40;;;2.10;99.90;;;;;;4429682;32;20109;-71
2023/03/11 03:27:21;;;;;;;0.40;0.40;;;2.10;99.90;;;;;;4428462;32;20090;-72
2023/03/11 03:29:47;;;;;;;0.40;0.40;;;2.10;99.90;;;;;;4429146;32;20109;-72
2023/03/11 03:32:12;;;;;;;0.40;0.40;;;2.00;99.90;;;;;;4430648;32;20084;-72
2023/03/11 03:34:38;;;;;;;0.40;0.40;;;2.10;99.90;;;;;;4431070;32;20073;-72
2023/03/11 03:37:03;;;;;;;0.40;0.40;;;1.90;99.90;;;;;;4434742;32;20417;-72
2023/03/11 03:39:29;;;;;;;0.37;0.37;;;2.00;99.90;;;;;;4429972;32;20105;-72
2023/03/11 03:41:54;;;;;;;0.40;0.40;;;2.10;99.90;;;;;;4429878;32;20061;-74
2023/03/11 03:44:20;;;;;;;0.50;0.50;;;2.00;99.90;;;;;;4430083;32;20761;-74
2023/03/11 03:46:45;;;;;;;0.50;0.50;;;1.90;99.90;;;;;;4433160;32;20088;-71
2023/03/11 03:49:10;;;;;;;0.50;0.50;;;1.90;99.90;;;;;;4430010;32;20128;-71
2023/03/11 03:51:36;;;;;;;0.80;0.80;;;1.90;99.90;;;;;;4430094;32;20499;-73
2023/03/11 03:54:01;;;;;;;0.55;0.55;;;2.00;99.90;;;;;;4430372;32;20088;-73
2023/03/11 03:56:27;;;;;;;0.43;0.43;;;2.10;99.90;;;;;;4431461;32;20077;-72
2023/03/11 03:58:53;;;;;;;0.30;0.30;;;2.00;99.90;;;;;;4429034;32;20145;-71
2023/03/11 04:01:20;;;;;;;0.40;0.40;;;1.90;99.90;;;;;;4430179;32;20116;-72
2023/03/11 04:03:45;;;;;;;0.43;0.43;;;1.90;99.90;;;;;;4430501;32;20069;-71
2023/03/11 04:06:27;;;;;;;0.50;0.50;;;2.00;99.90;;;;;;4431066;32;20844;-73
2023/03/11 04:08:54;;;;;;;0.40;0.40;;;1.90;99.90;;;;;;4429001;32;20121;-73
2023/03/11 04:11:19;;;;;;;0.50;0.50;;;1.90;99.90;;;;;;4429464;32;20281;-72
2023/03/11 04:13:45;;;;;;;0.40;0.40;;;1.80;99.90;;;;;;4429255;32;20158;-72
2023/03/11 04:16:17;;;;;;;0.47;0.47;;;1.90;99.90;;;;;;4433152;32;20334;-72
2023/03/11 04:18:43;;;;;;;0.43;0.43;;;1.80;99.90;;;;;;4430083;32;20076;-72
2023/03/11 04:21:08;;;;;;;0.50;0.50;;;1.90;99.90;;;;;;4430394;32;20477;-74
2023/03/11 04:23:34;;;;;;;0.75;0.75;;;1.90;99.90;;;;;;4431850;32;20602;-71
2023/03/11 04:25:59;;;;;;;0.60;0.60;;;1.90;99.90;;;;;;4431319;32;20093;-71
2023/03/11 04:28:25;;;;;;;0.40;0.40;;;1.90;99.90;;;;;;4432567;32;20186;-72
2023/03/11 04:30:50;;;;;;;0.40;0.40;;;1.90;99.90;;;;;;4432496;32;20065;-73
2023/03/11 04:33:16;;;;;;;0.40;0.40;;;2.00;99.90;;;;;;4433045;32;20089;-73
2023/03/11 04:35:41;;;;;;;0.40;0.40;;;2.00;99.90;;;;;;4434630;32;20508;-72
2023/03/11 04:38:07;;;;;;;0.62;0.62;;;2.00;99.90;;;;;;4431749;32;20275;-71
2023/03/11 04:40:32;;;;;;;0.40;0.40;;;2.00;99.90;;;;;;4433275;32;20094;-71
2023/03/11 04:42:58;;;;;;;0.40;0.40;;;2.00;99.90;;;;;;4429303;32;20198;-72
2023/03/11 04:45:23;;;;;;;0.40;0.40;;;2.00;99.90;;;;;;4423063;32;20130;-72
2023/03/11 04:47:50;;;;;;;0.50;0.50;;;2.00;99.90;;;;;;4421795;32;20202;-74
2023/03/11 04:50:16;;;;;;;0.40;0.40;;;2.10;99.90;;;;;;4422164;32;20098;-72
2023/03/11 04:52:41;;;;;;;0.40;0.40;;;1.90;99.90;;;;;;4421238;32;20077;-71
2023/03/11 04:55:07;;;;;;;0.40;0.40;;;1.90;99.90;;;;;;4422262;32;20553;-71
2023/03/11 04:57:32;;;;;;;0.40;0.40;;;1.80;99.90;;;;;;4422150;32;20127;-74
2023/03/11 04:59:58;;;;;;;0.40;0.40;;;1.80;99.90;;;;;;4422162;32;20081;-74
2023/03/11 05:02:23;;;;;;;0.40;0.40;;;1.80;99.90;;;;;;4421777;32;20092;-71
2023/03/11 05:04:49;;;;;;;0.45;0.45;;;1.80;99.90;;;;;;4422486;32;20084;-71
2023/03/11 05:07:15;;;;;;;0.40;0.40;;;1.80;99.90;;;;;;4421311;32;20085;-72
2023/03/11 05:09:40;;;;;;;0.40;0.40;;;1.80;99.90;;;;;;4422285;32;20094;-71
2023/03/11 05:12:06;;;;;;;0.43;0.43;;;1.80;99.90;;;;;;4421700;32;20552;-72
2023/03/11 05:14:31;;;;;;;0.50;0.50;;;1.90;99.90;;;;;;4422204;32;20062;-72
2023/03/11 05:16:57;;;;;;;0.40;0.40;;;1.90;99.90;;;;;;4423228;32;20651;-71
2023/03/11 05:19:29;;;;;;;0.40;0.40;;;1.80;99.90;;;;;;4422162;32;20529;-73
2023/03/11 05:21:55;;;;;;;0.50;0.50;;;1.80;99.90;;;;;;4422374;32;20092;-71
2023/03/11 05:24:21;;;;;;;0.43;0.43;;;1.80;99.90;;;;;;4420726;32;20101;-74
2023/03/11 05:26:46;;;;;;;0.50;0.50;;;1.90;99.90;;;;;;4422412;32;20077;-73
2023/03/11 05:29:12;;;;;;;0.50;0.50;;;1.90;99.90;;;;;;4421402;32;20141;-72
2023/03/11 05:31:37;;;;;;;0.50;0.50;;;2.00;99.90;;;;;;4422495;32;20398;-71
2023/03/11 05:34:03;;;;;;;0.40;0.40;;;2.00;99.90;;;;;;4419237;32;20142;-73
2023/03/11 05:36:28;;;;;;;0.40;0.40;;;2.00;99.90;;;;;;4421622;32;20137;-72
2023/03/11 05:38:54;;;;;;;0.40;0.40;;;1.90;99.90;;;;;;4419768;32;20552;-72
2023/03/11 05:41:19;;;;;;;0.40;0.40;;;1.90;99.90;;;;;;4422431;32;20091;-71
2023/03/11 05:43:45;;;;;;;0.40;0.40;;;2.00;99.90;;;;;;4427804;32;20513;-71
2023/03/11 05:46:11;;;;;;;0.40;0.40;;;1.90;99.90;;;;;;4431650;32;20516;-71
2023/03/11 05:48:37;;;;;;;0.50;0.50;;;2.00;99.90;;;;;;4431861;32;20122;-71
2023/03/11 05:51:08;;;;;;;0.40;0.40;;;2.00;99.90;;;;;;4430777;32;20540;-72
2023/03/11 05:53:33;;;;;;;0.40;0.40;;;2.00;99.90;;;;;;4432011;32;20073;-71
2023/03/11 05:55:59;;;;;;;0.50;0.50;;;2.00;99.90;;;;;;4430692;32;20064;-73
2023/03/11 05:58:25;;;;;;;0.50;0.50;;;2.10;99.90;;;;;;4434159;32;20073;-73
2023/03/11 06:00:51;;;;;;;0.40;0.40;;;2.00;99.90;;;;;;4431218;32;20068;-73
2023/03/11 06:03:17;;;;;;;0.40;0.40;;;2.00;99.90;;;;;;4432058;32;20085;-73
2023/03/11 06:05:46;;;;;;;0.32;0.32;;;2.00;99.90;;;;;;4434013;32;20057;-72
2023/03/11 06:08:12;;;;;;;0.50;0.50;;;2.00;99.90;;;;;;4431036;32;20077;-70
2023/03/11 06:10:38;;;;;;;0.40;0.40;;;2.00;99.90;;;;;;4431980;32;20106;-72
2023/03/11 06:13:03;;;;;;;0.60;0.60;;;1.90;99.90;;;;;;4431121;32;20093;-73
2023/03/11 06:15:29;;;;;;;0.47;0.47;;;1.90;99.90;;;;;;4431302;32;20324;-73
2023/03/11 06:17:54;;;;;;;0.40;0.40;;;2.00;99.90;;;;;;4430210;32;20073;-72
2023/03/11 06:20:20;;;;;;;1.08;0.98;;;2.00;99.90;;;;;;4432219;32;20225;-74
2023/03/11 06:22:48;;;;;;;0.62;0.62;;;2.00;99.90;;;;;;4432409;32;20081;-72
2023/03/11 06:25:14;;;;;;;0.40;0.40;;;2.10;99.90;;;;;;4428897;32;20077;-71
2023/03/11 06:27:39;;;;;;;0.47;0.47;;;2.20;99.90;;;;;;4431332;32;20078;-71
2023/03/11 06:30:06;;;;;;;0.47;0.47;;;2.00;99.90;;;;;;4430087;32;20097;-74
2023/03/11 06:32:33;;;;;;;0.70;0.70;;;2.00;99.90;;;;;;4430844;32;20080;-74
2023/03/11 06:34:58;;;;;;;0.30;0.30;;;1.90;99.90;;;;;;4431314;32;20068;-72
2023/03/11 06:37:24;;;;;;;0.40;0.40;;;1.90;99.90;;;;;;4429331;32;20098;-72
2023/03/11 06:39:52;;;;;;;0.43;0.43;;;1.90;99.90;;;;;;4431305;32;20086;-73
2023/03/11 06:42:17;;;;;;;0.68;0.68;;;2.00;99.90;;;;;;4430990;32;20061;-72
2023/03/11 06:44:43;;;;;;;1.15;0.85;;;2.00;99.90;;;;;;4420636;32;20068;-72
2023/03/11 06:47:08;;;;;;;0.50;0.50;;;2.10;99.90;;;;;;4421198;32;20178;-74
2023/03/11 06:49:35;;;;;;;0.43;0.43;;;2.10;99.90;;;;;;4419128;32;20279;-71
2023/03/11 06:52:01;;;;;;;0.40;0.40;;;2.00;99.90;;;;;;4421620;32;20485;-73
2023/03/11 06:54:26;;;;;;;0.50;0.50;;;2.10;99.90;;;;;;4420532;32;20140;-73
2023/03/11 06:56:52;;;;;;;0.40;0.40;;;1.90;99.90;;;;;;4421031;32;20061;-73
2023/03/11 06:59:18;;;;;;;0.40;0.40;;;2.00;99.90;;;;;;4418680;32;20092;-74
2023/03/11 07:01:44;;;;;;;0.73;0.73;;;1.90;99.90;;;;;;4418825;32;20069;-75
2023/03/11 07:04:10;;;;;;;0.40;0.40;;;2.00;99.90;;;;;;4419542;32;20080;-75
2023/03/11 07:06:36;;;;;;;0.45;0.45;;;1.90;99.90;;;;;;4420378;32;20075;-74
2023/03/11 07:09:02;;;;;;;0.40;0.40;;;1.90;99.90;;;;;;4418971;32;20086;-74
2023/03/11 07:11:27;;;;;;;1.05;0.95;;;1.90;99.90;;;;;;4420521;32;20090;-75
2023/03/11 07:13:53;;;;;;;0.40;0.40;;;2.00;99.90;;;;;;4419489;32;20135;-75
2023/03/11 07:16:21;;;;;;;1.75;1.00;;;2.10;99.90;;;;;;4421164;32;20057;-76
2023/03/11 07:18:48;;;;;;;0.40;0.40;;;2.30;99.90;;;;;;4419352;32;20081;-77
2023/03/11 07:21:16;;;;;;;0.50;0.50;;;2.30;99.90;;;;;;4420576;32;20208;-75
2023/03/11 07:23:42;;;;;;;0.60;0.60;;;2.30;99.90;;;;;;4417942;32;20117;-75
2023/03/11 07:26:09;;;;;;;0.75;0.70;;;2.10;99.90;;;;;;4419998;32;20156;-75
2023/03/11 07:28:35;;;;;;;0.40;0.40;;;2.10;99.90;;;;;;4421838;32;20090;-75
2023/03/11 07:31:07;;;;;;;0.40;0.40;;;2.10;99.90;;;;;;4417468;32;20068;-75
2023/03/11 07:33:33;;;;;;;0.68;0.68;;;2.10;99.90;;;;;;4417811;32;20106;-76
2023/03/11 07:35:58;;;;;;;0.47;0.47;;;2.10;99.90;;;;;;4419585;32;20086;-76
2023/03/11 07:38:24;;;;;;;0.50;0.50;;;2.20;99.90;;;;;;4419022;32;20557;-75
2023/03/11 07:40:57;;;;;;;0.40;0.40;;;2.30;99.90;;;;;;4417482;32;20112;-74
2023/03/11 07:43:23;;;;;;;0.50;0.50;;;2.20;99.90;;;;;;4424088;32;20088;-76
2023/03/11 07:45:49;;;;;;;0.50;0.50;;;2.20;99.90;;;;;;4430282;32;20413;-74
2023/03/11 07:48:14;;;;;;;0.40;0.40;;;2.20;99.90;;;;;;4429496;32;20093;-76
2023/03/11 07:50:40;;;;;;;1.10;0.88;;;2.30;99.90;;;;;;4428295;32;20081;-77
2023/03/11 07:53:05;;;;;;;0.40;0.40;;;2.40;99.90;;;;;;4429206;32;20333;-77
2023/03/11 07:55:31;;;;;;;0.50;0.50;;;2.40;99.90;;;;;;4429749;32;20097;-76
2023/03/11 07:57:56;;;;;;;0.40;0.40;;;2.50;99.90;;;;;;4430789;32;20089;-75
2023/03/11 08:00:21;;;;;;;0.70;0.70;;;2.50;99.90;;;;;;4431338;32;20105;-75
2023/03/11 08:02:47;;;;;;;0.40;0.40;;;2.40;99.90;;;;;;4432433;32;20914;-75
2023/03/11 08:05:13;;;;;;;0.65;0.65;;;2.40;99.90;;;;;;4433874;32;20547;-75
2023/03/11 08:07:39;;;;;;;0.40;0.40;;;2.40;99.90;;;;;;4432477;32;20090;-74
2023/03/11 08:10:04;;;;;;;0.50;0.50;;;2.60;99.90;;;;;;4431659;32;20997;-76
2023/03/11 08:12:30;;;;;;;1.05;0.98;;;2.60;99.90;;;;;;4431590;32;20088;-74
2023/03/11 08:14:55;;;;;;;1.42;1.33;;;2.60;99.90;;;;;;4433336;32;20631;-77
2023/03/11 08:17:21;;;;;;;0.70;0.70;;;2.60;99.90;;;;;;4430587;32;20089;-75
2023/03/11 08:19:48;;;;;;;0.50;0.50;;;2.50;99.90;;;;;;4432082;32;20088;-75
2023/03/11 08:22:14;;;;;;;1.70;0.65;;;2.40;99.90;;;;;;4433677;32;20104;-75
2023/03/11 08:24:39;;;;;;;0.52;0.52;;;2.40;99.90;;;;;;4432149;32;20081;-76
2023/03/11 08:27:05;;;;;;;0.40;0.40;;;2.50;99.90;;;;;;4434274;32;20649;-76
2023/03/11 08:29:30;;;;;;;0.50;0.50;;;2.50;99.90;;;;;;4433075;32;20135;-77
2023/03/11 08:31:56;;;;;;;0.40;0.40;;;2.60;99.90;;;;;;4432039;32;20613;-77
2023/03/11 08:34:21;;;;;;;0.60;0.60;;;2.60;99.90;;;;;;4432373;32;20069;-77
2023/03/11 08:36:47;;;;;;;0.45;0.45;;;2.60;99.90;;;;;;4431183;32;20086;-75
2023/03/11 08:39:12;;;;;;;0.43;0.43;;;2.70;99.90;;;;;;4431853;32;20096;-76
2023/03/11 08:41:38;;;;;;;1.12;0.80;;;2.60;99.90;;;;;;4432745;32;20085;-74
2023/03/11 08:44:04;;;;;;;0.77;0.77;;;2.70;99.90;;;;;;4429207;32;20586;-76
2023/03/11 08:46:33;;;;;;;1.37;0.85;;;2.90;99.90;;;;;;4429536;32;20089;-75
2023/03/11 08:49:00;;;;;;;0.40;0.40;;;2.90;99.90;;;;;;4428310;32;20153;-76
2023/03/11 08:51:26;;;;;;;0.95;0.95;;;2.90;99.90;;;;;;4431868;32;20758;-76
2023/03/11 08:53:52;;;;;;;1.27;1.02;;;2.80;99.90;;;;;;4431888;32;20081;-74
2023/03/11 08:56:18;;;;;;;0.55;0.55;;;2.80;99.90;;;;;;4431522;32;20082;-76
2023/03/11 08:58:44;;;;;;;0.60;0.60;;;2.70;99.90;;;;;;4431577;32;20061;-77
2023/03/11 09:01:11;;;;;;;0.73;0.73;;;2.70;99.90;;;;;;4430626;32;20084;-75
2023/03/11 09:03:36;;;;;;;0.40;0.40;;;2.70;99.90;;;;;;4435411;32;21106;-76
2023/03/11 09:06:05;;;;;;;0.62;0.62;;;2.90;99.90;;;;;;4434389;32;20148;-76
2023/03/11 09:08:31;;;;;;;0.40;0.40;;;2.80;99.90;;;;;;4432630;32;20061;-76
2023/03/11 09:10:57;;;;;;;0.73;0.73;;;2.80;99.90;;;;;;4430598;32;20122;-76
2023/03/11 09:13:22;;;;;;;0.40;0.40;;;2.90;99.90;;;;;;4429516;32;20571;-74
2023/03/11 09:15:49;;;;;;;0.40;0.40;;;2.90;99.90;;;;;;4432753;32;20089;-75
2023/03/11 09:18:15;;;;;;;0.50;0.50;;;2.80;99.90;;;;;;4432433;32;20080;-76
2023/03/11 09:20:42;;;;;;;3.00;1.30;;;2.70;99.90;;;;;;4432260;32;20123;-76
2023/03/11 09:23:09;;;;;;;0.40;0.40;;;2.70;99.90;;;;;;4432065;32;20065;-75
2023/03/11 09:25:34;;;;;;;0.40;0.40;;;2.90;99.90;;;;;;4431322;32;20419;-76
2023/03/11 09:28:00;;;;;;;0.43;0.43;;;2.80;99.90;;;;;;4432005;32;20088;-75
2023/03/11 09:30:26;;;;;;;0.60;0.60;;;2.80;99.90;;;;;;4434240;32;20085;-76
2023/03/11 09:32:51;;;;;;;0.50;0.50;;;2.80;99.90;;;;;;4432322;32;20076;-76
2023/03/11 09:35:17;;;;;;;0.60;0.60;;;2.90;99.90;;;;;;4431622;32;20061;-75
2023/03/11 09:37:42;;;;;;;0.40;0.40;;;2.80;99.90;;;;;;4430700;32;20073;-75
2023/03/11 09:40:14;;;;;;;0.50;0.50;;;2.90;99.90;;;;;;4430248;32;20085;-75
2023/03/11 09:42:47;;;;;;;0.55;0.55;;;2.90;99.90;;;;;;4432781;32;20160;-75
2023/03/11 09:45:18;;;;;;;0.50;0.50;;;2.90;99.90;;;;;;4433134;32;20101;-75
2023/03/11 09:48:11;;;;;;;0.43;0.43;;;3.00;99.90;;;;;;4434258;32;20085;-76
2023/03/11 09:50:56;;;;;;;0.90;0.85;;;2.90;99.90;;;;;;4425534;32;20092;-76
2023/03/11 09:53:42;;;;;;;0.40;0.40;;;2.90;99.90;;;;;;4432485;32;20143;-76
2023/03/11 09:56:13;;;;;;;0.40;0.40;;;2.90;99.90;;;;;;4421178;32;20082;-76
2023/03/11 09:58:49;;;;;;;0.50;0.50;;;2.90;99.90;;;;;;4432834;32;20492;-77
2023/03/11 10:01:27;;;;;;;0.60;0.60;;;3.00;99.90;;;;;;4429656;32;20084;-75
2023/03/11 10:03:56;;;;;;;0.47;0.47;;;2.90;99.90;;;;;;4429897;32;20150;-76
2023/03/11 10:06:24;;;;;;;0.40;0.40;;;2.80;99.90;;;;;;4432674;32;20204;-74
2023/03/11 10:09:13;;;;;;;0.40;0.40;;;2.90;99.90;;;;;;4432227;32;20082;-73
2023/03/11 10:12:04;;;;;;;1.10;0.85;;;2.80;99.90;;;;;;4422733;32;20086;-70
2023/03/11 10:14:31;;;;;;;;;;;2.70;99.90;;;;;;4425880;32;20069;-72
2023/03/11 10:17:27;;;;;;;0.32;0.32;;;2.70;99.90;;;;;;4432080;32;19945;-74
2023/03/11 10:20:15;;;;;;;0.50;0.50;;;2.60;99.90;;;;;;4431814;32;20089;-73
2023/03/11 10:22:55;;;;;;;0.40;0.40;;;2.50;99.90;;;;;;4420333;32;20105;-73
2023/03/11 10:25:27;;;;;;;0.50;0.50;;;2.50;99.90;;;;;;4431925;32;20146;-72
2023/03/11 10:28:13;;;;;;;0.62;0.62;;;2.50;99.90;;;;;;4430338;32;20135;-72
2023/03/11 10:30:45;;;;;;;0.47;0.47;;;2.50;99.90;;;;;;4417387;32;20089;-73
2023/03/11 10:33:27;;;;;;;0.47;0.47;;;2.30;99.90;;;;;;4432903;32;20064;-70
2023/03/11 10:35:57;;;;;;;0.52;0.52;;;2.40;99.90;;;;;;4429858;32;20077;-72
2023/03/11 10:38:29;;;;;;;0.40;0.40;;;2.40;99.90;;;;;;4430201;32;20065;-70
2023/03/11 10:40:59;;;;;;;0.40;0.40;;;2.50;99.90;;;;;;4431380;32;20065;-72
2023/03/11 10:43:32;;;;;;;0.50;0.50;;;2.60;99.90;;;;;;4423822;32;20089;-72
2023/03/11 10:45:58;;;;;;;0.70;0.70;;;2.80;99.90;;;;;;4416678;32;20081;-72
2023/03/11 10:48:25;;;;;;;0.40;0.40;;;2.70;99.90;;;;;;4417192;32;20089;-71
2023/03/11 10:51:11;;;;;;;3.20;1.75;;;2.90;99.90;;;;;;4417845;32;20088;-74
2023/03/11 10:53:56;;;;;;;0.60;0.60;;;2.80;99.90;;;;;;4418026;32;20120;-72
2023/03/11 10:56:27;;;;;;;0.65;0.65;;;2.90;99.90;;;;;;4412548;32;20160;-73
2023/03/11 10:58:53;;;;;;;2.28;1.37;;;2.90;99.90;;;;;;4416535;32;20089;-72
2023/03/11 11:01:20;;;;;;;0.80;0.80;;;3.10;99.90;;;;;;4414246;32;20066;-71
2023/03/11 11:03:48;;;;;;;0.40;0.40;;;3.40;99.90;;;;;;4415330;32;20142;-71
2023/03/11 11:06:32;;;;;;;0.43;0.43;;;3.40;99.90;;;;;;4416282;32;20112;-72
2023/03/11 11:09:18;;;;;;;0.50;0.50;;;3.50;99.90;;;;;;4416591;32;20082;-72
2023/03/11 11:12:10;;;;;;;0.55;0.55;;;3.50;99.90;;;;;;4417977;32;20543;-71
2023/03/11 11:14:47;;;;;;;0.40;0.40;;;3.50;99.90;;;;;;4415120;32;20068;-75
2023/03/11 11:17:17;;;;;;;0.40;0.40;;;3.40;99.90;;;;;;4414424;32;20449;-71
2023/03/11 11:19:45;;;;;;;0.47;0.47;;;3.40;99.90;;;;;;4417602;32;20093;-71
2023/03/11 11:22:16;;;;;;;0.40;0.40;;;3.30;99.90;;;;;;4416012;32;20097;-70
2023/03/11 11:24:44;;;;;;;;;;;3.20;99.90;;;;;;4414943;32;20069;-71
2023/03/11 11:27:16;;;;;;;0.50;0.50;;;3.20;99.90;;;;;;4416258;32;20206;-70
2023/03/11 11:29:42;;;;;;;0.85;0.65;;;3.20;99.90;;;;;;4413319;32;20099;-70
2023/03/11 11:32:18;;;;;;;0.30;0.30;;;3.20;99.90;;;;;;4417071;32;20086;-73
2023/03/11 11:35:02;;;;;;;0.65;0.65;;;3.20;99.90;;;;;;4413781;32;20533;-72
2023/03/11 11:37:30;;;;;;;0.45;0.45;;;3.20;99.90;;;;;;4419036;32;20110;-73
2023/03/11 11:40:09;;;;;;;2.05;1.20;;;3.30;99.90;;;;;;4418558;32;20102;-71
2023/03/11 11:42:38;;;;;;;1.98;1.05;;;3.40;99.90;;;;;;4416725;32;92487;-71
2023/03/11 11:45:14;;;;;;;0.60;0.60;;;3.80;99.90;;;;;;4429665;32;20144;-72
2023/03/11 11:47:45;;;;;;;0.68;0.68;;;3.90;99.90;;;;;;4430621;32;20190;-72
2023/03/11 11:50:21;;;;;;;0.68;0.68;;;4.10;99.90;;;;;;4428116;32;20460;-71
2023/03/11 11:52:54;;;;;;;1.55;1.20;;;4.30;99.90;;;;;;4429785;32;20057;-71
2023/03/11 11:55:24;;;;;;;0.60;0.60;;;4.40;99.90;;;;;;4432708;32;20587;-73
2023/03/11 11:57:50;;;;;;;1.80;1.53;;;4.50;99.90;;;;;;4431573;32;20073;-70
2023/03/11 12:00:24;;;;;;;0.45;0.45;;;4.50;99.90;;;;;;4428931;32;20159;-71
2023/03/11 12:03:11;;;;;;;0.40;0.40;;;4.10;99.90;;;;;;4429121;32;20123;-73
2023/03/11 12:05:48;;;;;;;0.30;0.30;;;4.10;99.90;;;;;;4431609;32;20089;-71
2023/03/11 12:08:22;;;;;;;0.40;0.40;;;4.40;99.90;;;;;;4429148;32;20077;-71
2023/03/11 12:10:57;;;;;;;0.50;0.50;;;4.80;99.90;;;;;;4431419;32;20089;-71
2023/03/11 12:14:03;;;;;;;6.43;0.85;;;4.70;99.90;;;;;;4428415;32;20134;-72
2023/03/11 12:16:54;;;;;;;0.30;0.30;;;5.40;99.90;;;;;;4413959;32;20537;-71
2023/03/11 12:19:25;;;;;;;;;;;5.70;99.90;;;;;;4422197;32;20082;-71
2023/03/11 12:21:58;;;;;;;0.40;0.40;;;5.80;99.90;;;;;;4433220;32;19953;-72
2023/03/11 12:24:45;;;;;;;0.50;0.50;;;5.90;99.90;;;;;;4428434;32;20082;-72
2023/03/11 12:27:20;;;;;;;1.60;0.50;;;6.10;99.90;;;;;;4422258;32;20076;-71
2023/03/11 12:29:50;;;;;;;0.40;0.40;;;6.20;99.90;;;;;;4432034;32;20053;-71
2023/03/11 12:32:32;;;;;;;0.57;0.57;;;6.20;99.90;;;;;;4428181;32;20084;-74
2023/03/11 12:35:09;;;;;;;0.55;0.55;;;5.90;99.90;;;;;;4428106;32;20136;-73
2023/03/11 12:37:35;;;;;;;0.50;0.50;;;5.80;99.90;;;;;;4429579;32;20423;-71
2023/03/11 12:40:41;;;;;;;0.43;0.43;;;5.50;99.90;;;;;;4429462;32;20081;-71
2023/03/11 12:43:28;;;;;;;2.00;1.05;;;5.60;99.90;;;;;;4404284;32;20069;-70
2023/03/11 12:45:56;;;;;;;0.70;0.70;;;6.40;99.90;;;;;;4408625;32;20085;-69
2023/03/11 12:48:34;;;;;;;0.68;0.68;;;6.90;99.90;;;;;;4411220;32;20135;-72
2023/03/11 12:51:00;;;;;;;0.60;0.60;;;6.50;99.90;;;;;;4409350;32;20105;-70
2023/03/11 12:53:42;;;;;;;0.30;0.30;;;6.40;99.90;;;;;;4412221;32;20077;-71
2023/03/11 12:56:26;;;;;;;1.55;0.60;;;6.30;99.90;;;;;;4410619;32;20097;-69
2023/03/11 12:59:23;;;;;;;0.40;0.40;;;6.20;99.90;;;;;;4410450;32;20548;-71
2023/03/11 13:02:09;;;;;;;1.35;1.17;;;6.50;99.90;;;;;;4410686;32;20156;-71
2023/03/11 13:04:43;;;;;;;0.47;0.47;;;6.90;99.90;;;;;;4409720;32;20113;-73
2023/03/11 13:07:43;;;;;;;0.30;0.30;;;7.70;99.90;;;;;;4408985;32;20101;-70